Time;durP1;ratioP1;P1;durP2;ratioP2;P2;SDS_P1;SDS_P2;PMS_P1;PMS_P2;Temp;Humidity;BMP_temperature;BMP_pressure;BME280_temperature;BME280_humidity;BME280_pressure;Samples;Min_cycle;Max_cycle;Signal;HPM_P1;HPM_P2
2022/04/28 00:02:18;;;;;;;5.57;3.78;;;;;;;8.40;69.41;103070.06;5091099;28;20371;-78
2022/04/28 00:04:44;;;;;;;9.23;4.00;;;;;;;8.38;69.58;103077.00;5057955;28;20028;-79
2022/04/28 00:07:09;;;;;;;7.57;4.25;;;;;;;8.37;69.42;103077.88;5074519;28;20101;-79
2022/04/28 00:09:35;;;;;;;8.70;4.13;;;;;;;8.35;69.33;103078.72;5074554;28;20044;-79
2022/04/28 00:12:00;;;;;;;11.00;4.63;;;;;;;8.32;69.44;103078.75;5052766;28;20028;-79
2022/04/28 00:14:26;;;;;;;5.47;3.97;;;;;;;8.31;69.32;103077.84;5063728;28;20047;-78
2022/04/28 00:16:51;;;;;;;7.18;4.65;;;;;;;8.27;69.21;103076.09;5042980;28;20331;-78
2022/04/28 00:19:16;;;;;;;8.02;4.05;;;;;;;8.25;69.26;103075.22;5059541;28;20040;-78
2022/04/28 00:21:42;;;;;;;5.47;3.70;;;;;;;8.23;69.09;103069.13;5061921;28;20039;-78
2022/04/28 00:24:07;;;;;;;5.10;3.55;;;;;;;8.21;69.17;103074.31;5039877;28;20063;-78
2022/04/28 00:26:33;;;;;;;6.82;3.97;;;;;;;8.18;69.04;103074.31;5037473;28;20252;-78
2022/04/28 00:28:58;;;;;;;7.53;4.30;;;;;;;8.15;69.21;103071.69;5077263;28;20044;-78
2022/04/28 00:31:24;;;;;;;5.95;4.20;;;;;;;8.14;69.05;103063.84;5051318;28;20040;-78
2022/04/28 00:33:49;;;;;;;9.98;4.13;;;;;;;8.12;69.16;103068.19;5055123;28;20270;-78
2022/04/28 00:36:15;;;;;;;7.80;4.30;;;;;;;8.10;69.28;103067.31;5055475;28;20047;-78
2022/04/28 00:38:40;;;;;;;9.13;4.30;;;;;;;8.08;69.15;103067.31;5039417;28;20371;-78
2022/04/28 00:41:06;;;;;;;4.50;4.00;;;;;;;8.06;69.15;103069.91;5048583;28;20328;-78
2022/04/28 00:43:33;;;;;;;3.85;3.42;;;;;;;8.03;69.18;103062.03;5058782;28;20494;-78
2022/04/28 00:45:58;;;;;;;6.07;3.88;;;;;;;8.01;69.24;103057.69;5058793;28;20067;-78
2022/04/28 00:51:11;;;;;;;6.32;4.00;;;;;;;7.97;69.13;103062.03;5074818;28;20035;-78
2022/04/28 00:53:48;;;;;;;5.32;4.25;;;;;;;7.95;69.04;103068.97;5056858;28;20344;-78
2022/04/28 00:56:15;;;;;;;4.55;4.03;;;;;;;7.92;69.11;103071.56;5075219;28;20048;-78
2022/04/28 00:58:41;;;;;;;9.63;4.30;;;;;;;7.91;68.99;103079.38;5062907;28;20099;-78
2022/04/28 01:04:28;;;;;;;5.53;4.72;;;;;;;7.83;69.22;103074.97;5061295;28;20139;-78
2022/04/28 01:06:54;;;;;;;5.25;4.25;;;;;;;7.80;69.18;103067.13;5061953;28;20455;-78
2022/04/28 01:09:19;;;;;;;9.65;4.75;;;;;;;7.78;69.02;103066.25;5045061;28;20067;-78
2022/04/28 01:11:45;;;;;;;5.45;4.10;;;;;;;7.75;69.13;103066.25;5045212;28;20040;-78
2022/04/28 01:14:10;;;;;;;7.40;4.50;;;;;;;7.74;69.24;103061.00;5051231;28;20312;-78
2022/04/28 01:16:35;;;;;;;8.00;4.70;;;;;;;7.72;69.26;103058.38;5032450;28;20040;-78
2022/04/28 01:19:01;;;;;;;6.38;4.68;;;;;;;7.69;69.44;103055.75;5036873;28;20040;-78
2022/04/28 01:21:26;;;;;;;6.80;4.25;;;;;;;7.68;69.47;103064.44;5070999;28;20433;-78
2022/04/28 01:23:51;;;;;;;6.38;3.80;;;;;;;7.65;69.37;103067.03;5079541;28;20071;-78
2022/04/28 01:26:18;;;;;;;5.43;4.30;;;;;;;7.63;69.50;103064.41;5063849;28;20062;-78
2022/04/28 01:28:43;;;;;;;5.88;4.38;;;;;;;7.63;69.45;103068.75;5044961;28;20347;-78
2022/04/28 01:31:09;;;;;;;5.45;4.30;;;;;;;7.61;69.50;103067.88;5079300;28;20056;-78
2022/04/28 01:33:34;;;;;;;4.60;4.20;;;;;;;7.58;69.24;103071.31;5061263;28;20351;-78
2022/04/28 01:36:00;;;;;;;5.93;4.38;;;;;;;7.55;69.46;103071.31;5061395;28;20283;-78
2022/04/28 01:38:25;;;;;;;5.88;4.40;;;;;;;7.55;69.46;103070.41;5060623;28;20074;-78
2022/04/28 01:40:51;;;;;;;6.68;4.32;;;;;;;7.52;69.50;103067.81;5042095;28;20375;-78
2022/04/28 01:43:17;;;;;;;7.40;4.45;;;;;;;7.49;69.28;103068.63;5044312;28;20033;-78
2022/04/28 01:45:42;;;;;;;4.28;3.85;;;;;;;7.47;69.22;103076.44;5057285;28;20120;-78
2022/04/28 01:48:08;;;;;;;6.38;4.55;;;;;;;7.45;69.34;103069.47;5048655;28;20087;-78
2022/04/28 01:50:34;;;;;;;6.65;4.40;;;;;;;7.44;69.19;103076.44;5054278;28;20323;-78
2022/04/28 01:55:43;;;;;;;7.43;4.60;;;;;;;7.40;69.23;103076.38;5077832;28;20043;-78
2022/04/28 01:58:09;;;;;;;5.38;4.53;;;;;;;7.37;69.30;103082.47;5077563;28;20044;-78
2022/04/28 02:00:34;;;;;;;7.70;4.13;;;;;;;7.36;69.44;103080.72;5064292;28;20037;-78
2022/04/28 02:03:00;;;;;;;6.32;4.85;;;;;;;7.34;69.32;103087.66;5079127;28;20044;-78
2022/04/28 02:05:25;;;;;;;5.13;4.35;;;;;;;7.33;69.48;103080.69;5078456;28;20040;-78
2022/04/28 02:07:51;;;;;;;6.07;4.63;;;;;;;7.30;69.38;103078.91;5077304;28;20047;-78
2022/04/28 02:10:16;;;;;;;8.95;4.78;;;;;;;7.28;69.64;103075.44;5043278;28;20078;-78
2022/04/28 02:12:42;;;;;;;6.20;4.45;;;;;;;7.26;69.65;103069.34;5027629;28;20228;-78
2022/04/28 02:15:08;;;;;;;5.05;3.88;;;;;;;7.25;69.68;103077.13;5078849;28;20360;-78
2022/04/28 02:17:36;;;;;;;7.95;4.78;;;;;;;7.23;69.45;103071.91;5078567;28;20035;-78
2022/04/28 02:20:04;;;;;;;8.20;4.63;;;;;;;7.21;69.51;103073.63;5061629;28;20335;-77
2022/04/28 02:22:29;;;;;;;6.75;4.20;;;;;;;7.20;69.84;103073.59;5060168;28;20083;-78
2022/04/28 02:24:55;;;;;;;7.90;4.72;;;;;;;7.18;69.83;103078.81;5028019;28;20029;-78
2022/04/28 02:27:20;;;;;;;5.03;4.57;;;;;;;7.17;69.73;103079.69;5060332;28;20106;-78
2022/04/28 02:29:46;;;;;;;5.47;4.60;;;;;;;7.16;69.81;103082.25;5060792;28;20044;-78
2022/04/28 02:32:11;;;;;;;5.30;4.25;;;;;;;7.15;69.79;103080.50;5052924;28;20096;-78
2022/04/28 02:34:37;;;;;;;5.00;4.55;;;;;;;7.13;69.85;103082.22;5078509;28;20045;-78
2022/04/28 02:37:02;;;;;;;6.32;4.72;;;;;;;7.10;69.87;103080.47;5058180;28;20028;-78
2022/04/28 02:39:28;;;;;;;5.35;4.15;;;;;;;7.11;69.88;103082.22;5042681;28;20370;-78
2022/04/28 02:41:53;;;;;;;9.20;4.57;;;;;;;7.09;69.90;103079.63;5078085;28;20347;-78
2022/04/28 02:44:18;;;;;;;4.90;4.28;;;;;;;7.07;70.20;103077.84;5076274;28;20057;-78
2022/04/28 02:46:45;;;;;;;5.32;4.82;;;;;;;7.05;70.17;103070.00;5060566;28;20056;-78
2022/04/28 02:49:11;;;;;;;7.03;5.20;;;;;;;7.04;70.03;103077.78;5077784;28;20048;-78
2022/04/28 02:51:37;;;;;;;4.75;4.13;;;;;;;7.03;70.11;103081.28;5078415;28;20228;-78
2022/04/28 02:54:03;;;;;;;9.48;5.47;;;;;;;7.01;70.19;103077.78;5078268;28;20037;-78
2022/04/28 02:56:28;;;;;;;8.57;4.78;;;;;;;6.98;69.97;103068.19;5060278;28;20111;-78
2022/04/28 02:58:54;;;;;;;5.80;4.55;;;;;;;6.98;70.22;103076.00;5036706;28;20100;-78
2022/04/28 03:01:21;;;;;;;7.35;5.38;;;;;;;6.97;70.33;103076.88;5043855;28;20027;-78
2022/04/28 03:03:47;;;;;;;5.10;4.45;;;;;;;6.96;70.30;103076.84;5060872;28;20072;-78
2022/04/28 03:11:41;;;;;;;6.45;5.07;;;;;;;6.90;70.31;103075.94;5075575;28;20039;-78
2022/04/28 03:14:08;;;;;;;5.70;5.10;;;;;;;6.90;70.38;103073.31;5060374;28;20040;-78
2022/04/28 03:16:33;;;;;;;5.55;4.50;;;;;;;6.89;70.46;103068.09;5071019;28;20040;-78
2022/04/28 03:18:58;;;;;;;7.65;5.20;;;;;;;6.88;70.66;103066.38;5077200;28;20335;-78
2022/04/28 03:21:24;;;;;;;5.97;5.10;;;;;;;6.87;70.45;103069.81;5059378;28;20044;-78
2022/04/28 03:23:50;;;;;;;9.35;5.60;;;;;;;6.85;70.69;103061.97;5043663;28;20036;-78
2022/04/28 03:26:16;;;;;;;9.48;5.38;;;;;;;6.85;70.75;103066.31;5059706;28;20040;-78
2022/04/28 03:28:42;;;;;;;5.97;5.18;;;;;;;6.85;70.74;103071.53;5074250;28;20270;-78
2022/04/28 03:31:08;;;;;;;6.70;5.55;;;;;;;6.83;70.82;103071.50;5059786;28;20036;-78
2022/04/28 03:33:34;;;;;;;8.45;5.30;;;;;;;6.83;70.94;103071.50;5059719;28;20032;-78
2022/04/28 03:36:00;;;;;;;7.15;5.38;;;;;;;6.82;70.87;103071.50;5060295;28;20048;-78
2022/04/28 03:38:25;;;;;;;10.85;5.47;;;;;;;6.81;70.75;103068.03;5059458;28;20036;-78
2022/04/28 03:40:51;;;;;;;10.38;5.85;;;;;;;6.80;70.89;103065.41;5060297;28;20125;-78
2022/04/28 03:43:17;;;;;;;10.48;6.45;;;;;;;6.79;71.09;103077.56;5042737;28;20024;-78
2022/04/28 03:45:43;;;;;;;8.65;5.68;;;;;;;6.77;71.10;103074.06;5059425;28;20047;-78
2022/04/28 03:48:09;;;;;;;6.20;5.30;;;;;;;6.77;71.07;103079.28;5058840;28;20028;-78
2022/04/28 03:50:39;;;;;;;6.88;5.72;;;;;;;6.77;71.16;103075.78;5077028;28;20036;-78
2022/04/28 03:53:05;;;;;;;7.43;5.80;;;;;;;6.76;71.26;103074.91;5058836;28;20273;-78
2022/04/28 03:55:30;;;;;;;6.75;5.72;;;;;;;6.75;71.28;103077.50;5059486;28;20032;-78
2022/04/28 03:57:56;;;;;;;7.75;5.72;;;;;;;6.75;71.31;103074.88;5039185;28;20277;-78
2022/04/28 04:00:22;;;;;;;9.93;5.47;;;;;;;6.74;71.38;103079.22;5034237;28;20516;-78
2022/04/28 04:02:48;;;;;;;7.82;5.82;;;;;;;6.74;71.43;103066.22;5052613;28;20098;-78
2022/04/28 04:05:14;;;;;;;9.13;5.70;;;;;;;6.74;71.33;103071.41;5059950;28;20107;-78
2022/04/28 04:07:42;;;;;;;7.68;5.57;;;;;;;6.72;71.38;103074.00;5071725;28;20029;-78
2022/04/28 04:10:12;;;;;;;8.52;5.82;;;;;;;6.72;71.40;103073.13;5038453;28;20124;-78
2022/04/28 04:12:38;;;;;;;8.88;6.35;;;;;;;6.70;71.46;103070.50;5044138;28;20029;-78
2022/04/28 04:15:05;;;;;;;9.75;6.22;;;;;;;6.69;71.62;103071.38;5059189;28;20279;-78
2022/04/28 04:17:31;;;;;;;7.85;6.30;;;;;;;6.68;72.18;103069.63;5067618;28;20247;-78
2022/04/28 04:19:56;;;;;;;8.00;5.53;;;;;;;6.68;72.23;103079.16;5058634;28;20044;-78
2022/04/28 04:22:21;;;;;;;8.25;5.68;;;;;;;6.69;72.19;103075.69;5075931;28;20046;-78
2022/04/28 04:24:47;;;;;;;8.60;5.20;;;;;;;6.68;72.19;103073.97;5057616;28;20041;-78
2022/04/28 04:27:14;;;;;;;8.70;5.40;;;;;;;6.68;71.96;103079.16;5037582;28;20375;-78
2022/04/28 04:29:39;;;;;;;8.02;5.68;;;;;;;6.69;71.82;103086.13;5054531;28;20147;-78
2022/04/28 04:32:17;;;;;;;8.43;5.30;;;;;;;6.66;71.92;103089.56;5031082;28;20086;-78
2022/04/28 04:34:48;;;;;;;7.30;5.13;;;;;;;6.66;71.92;103088.69;5076087;28;20383;-78
2022/04/28 04:37:14;;;;;;;9.93;5.40;;;;;;;6.64;71.77;103086.06;5075582;28;20043;-78
2022/04/28 04:39:43;;;;;;;6.65;5.50;;;;;;;6.64;71.72;103093.00;5057819;28;20044;-78
2022/04/28 04:42:09;;;;;;;7.07;5.10;;;;;;;6.62;71.72;103092.09;5041049;28;20032;-78
2022/04/28 04:44:34;;;;;;;9.85;5.43;;;;;;;6.61;71.29;103101.66;5057120;28;20308;-78
2022/04/28 04:47:00;;;;;;;7.95;5.80;;;;;;;6.61;71.63;103106.00;5075624;28;20339;-78
2022/04/28 04:49:25;;;;;;;5.47;4.78;;;;;;;6.58;71.63;103101.59;5035901;28;20048;-78
2022/04/28 04:51:50;;;;;;;6.22;5.60;;;;;;;6.57;71.46;103099.88;5057589;28;20094;-78
2022/04/28 04:54:16;;;;;;;5.65;5.15;;;;;;;6.56;71.56;103113.72;5040135;28;20391;-78
2022/04/28 04:56:41;;;;;;;6.38;5.70;;;;;;;6.56;71.59;103118.06;5040537;28;20496;-78
2022/04/28 04:59:06;;;;;;;8.77;5.95;;;;;;;6.56;71.63;103120.69;5057307;28;20139;-78
2022/04/28 05:01:32;;;;;;;9.48;5.72;;;;;;;6.54;71.76;103123.25;5050152;28;20318;-78
2022/04/28 05:03:57;;;;;;;6.65;5.50;;;;;;;6.55;71.68;103127.63;5052022;28;20037;-78
2022/04/28 05:06:23;;;;;;;8.45;5.82;;;;;;;6.53;71.68;103129.31;5070790;28;20363;-78
2022/04/28 05:08:48;;;;;;;8.50;5.60;;;;;;;6.52;71.66;103128.44;5055252;28;20039;-78
2022/04/28 05:11:14;;;;;;;8.45;6.22;;;;;;;6.53;71.88;103126.69;5040626;28;20040;-78
2022/04/28 05:13:39;;;;;;;5.95;5.35;;;;;;;6.53;71.51;103134.50;5057181;28;20032;-78
2022/04/28 05:16:05;;;;;;;7.13;5.50;;;;;;;6.53;71.76;103134.50;5040504;28;20043;-78
2022/04/28 05:18:31;;;;;;;5.65;5.10;;;;;;;6.54;71.83;103136.28;5040725;28;20028;-78
2022/04/28 05:20:57;;;;;;;10.13;5.85;;;;;;;6.54;72.02;103139.75;5075253;28;20040;-78
2022/04/28 05:23:22;;;;;;;8.20;5.57;;;;;;;6.56;72.09;103141.50;5043880;28;20099;-78
2022/04/28 05:25:48;;;;;;;7.70;5.78;;;;;;;6.57;72.80;103144.13;5057437;28;20363;-78
2022/04/28 05:28:14;;;;;;;8.93;6.40;;;;;;;6.54;73.91;103147.56;5065497;28;20052;-78
2022/04/28 05:30:39;;;;;;;11.45;6.63;;;;;;;6.55;74.53;103145.84;5049143;28;20036;-78
2022/04/28 05:33:05;;;;;;;14.57;7.60;;;;;;;6.49;76.58;103140.53;5047792;28;20044;-78
2022/04/28 05:35:30;;;;;;;9.93;7.25;;;;;;;6.47;76.92;103152.66;5050689;28;20359;-78
2022/04/28 05:37:56;;;;;;;10.82;6.88;;;;;;;6.47;76.88;103156.13;5065048;28;20198;-78
2022/04/28 05:40:22;;;;;;;18.70;8.38;;;;;;;6.44;77.95;103165.63;5048459;28;20037;-78
2022/04/28 05:45:46;;;;;;;15.85;8.25;;;;;;;6.36;79.14;103175.94;5072941;28;20599;-78
2022/04/28 05:48:20;;;;;;;11.85;6.93;;;;;;;6.38;79.02;103174.22;5051040;28;20104;-78
2022/04/28 05:50:46;;;;;;;13.40;7.85;;;;;;;6.37;79.21;103185.50;5073204;28;20108;-78
2022/04/28 05:53:12;;;;;;;10.80;6.88;;;;;;;6.32;79.92;103189.78;5050530;28;20230;-78
2022/04/28 05:55:38;;;;;;;15.57;7.43;;;;;;;6.28;80.19;103190.59;5070285;28;20107;-78
2022/04/28 05:58:04;;;;;;;14.20;7.43;;;;;;;6.30;79.89;103196.69;5074061;28;20032;-77
2022/04/28 06:00:30;;;;;;;12.32;7.47;;;;;;;6.31;79.90;103199.31;5036170;28;20055;-78
2022/04/28 06:02:56;;;;;;;12.05;7.53;;;;;;;6.32;80.10;103202.78;5038234;28;20316;-77
2022/04/28 06:05:22;;;;;;;14.85;7.88;;;;;;;6.34;79.53;103201.94;5053066;28;20565;-78
2022/04/28 06:07:48;;;;;;;12.23;7.85;;;;;;;6.33;79.78;103196.72;5054750;28;20341;-78
2022/04/28 06:10:14;;;;;;;14.15;7.00;;;;;;;6.33;79.72;103201.91;5058963;28;20225;-78
2022/04/28 06:12:43;;;;;;;13.57;7.65;;;;;;;6.36;79.73;103203.72;5042188;28;20044;-77
2022/04/28 06:15:09;;;;;;;19.40;7.15;;;;;;;6.39;79.51;103209.84;5051791;28;20032;-77
2022/04/28 06:17:35;;;;;;;13.02;7.43;;;;;;;6.45;79.68;103209.03;5057028;28;20047;-77
2022/04/28 06:20:00;;;;;;;16.02;7.22;;;;;;;6.48;79.00;103211.69;5069115;28;20068;-78
2022/04/28 06:22:26;;;;;;;11.93;6.75;;;;;;;6.50;79.14;103217.81;5059715;28;20431;-77
2022/04/28 06:24:53;;;;;;;16.40;6.80;;;;;;;6.53;78.81;103215.22;5076048;28;20214;-77
2022/04/28 06:27:18;;;;;;;16.77;7.03;;;;;;;6.56;78.59;103224.81;5044218;28;20348;-77
2022/04/28 06:29:44;;;;;;;13.45;6.60;;;;;;;6.60;78.28;103231.81;5059918;28;20295;-77
2022/04/28 06:32:10;;;;;;;10.77;6.63;;;;;;;6.64;78.20;103224.09;5047015;28;20029;-77
2022/04/28 06:34:36;;;;;;;13.13;6.65;;;;;;;6.68;78.21;103232.81;5073116;28;20451;-77
2022/04/28 06:37:01;;;;;;;12.18;6.13;;;;;;;6.72;77.98;103232.84;5062783;28;20090;-77
2022/04/28 06:39:26;;;;;;;17.33;6.78;;;;;;;6.75;77.73;103233.75;5060355;28;20044;-78
2022/04/28 06:41:52;;;;;;;12.98;7.10;;;;;;;6.78;77.03;103239.88;5059025;28;20044;-77
2022/04/28 06:44:17;;;;;;;11.80;5.53;;;;;;;6.81;76.73;103239.06;5076995;28;20095;-77
2022/04/28 06:46:44;;;;;;;14.63;6.28;;;;;;;6.84;76.49;103231.25;5058699;28;20044;-77
2022/04/28 06:49:10;;;;;;;12.63;5.97;;;;;;;6.89;76.41;103245.22;5055885;28;20036;-77
2022/04/28 06:51:35;;;;;;;15.18;6.20;;;;;;;6.94;76.85;103243.56;5057662;28;20032;-78
2022/04/28 06:54:02;;;;;;;13.65;6.10;;;;;;;6.99;76.61;103247.13;5076958;28;20037;-77
2022/04/28 06:56:27;;;;;;;16.05;6.72;;;;;;;7.03;76.74;103243.69;5076594;28;20100;-77
2022/04/28 06:58:53;;;;;;;14.73;6.35;;;;;;;7.08;76.28;103244.63;5072703;28;20032;-77
2022/04/28 07:01:18;;;;;;;11.45;6.00;;;;;;;7.13;76.06;103249.91;5058197;28;20033;-77
2022/04/28 07:03:44;;;;;;;9.80;5.38;;;;;;;7.17;75.60;103253.38;5042537;28;20264;-77
2022/04/28 07:06:09;;;;;;;13.45;6.10;;;;;;;7.22;75.77;103254.31;5033162;28;20217;-77
2022/04/28 07:08:35;;;;;;;8.30;5.47;;;;;;;7.27;74.60;103260.47;5048897;28;20043;-77
2022/04/28 07:11:00;;;;;;;13.93;6.07;;;;;;;7.29;74.21;103258.75;5056961;28;20340;-77
2022/04/28 07:13:25;;;;;;;11.68;5.35;;;;;;;7.33;73.27;103264.88;5074949;28;20370;-77
2022/04/28 07:15:51;;;;;;;15.05;4.90;;;;;;;7.36;72.99;103263.19;5052234;28;20032;-77
2022/04/28 07:18:16;;;;;;;10.98;4.70;;;;;;;7.42;72.84;103260.66;5040151;28;20036;-77
2022/04/28 07:20:44;;;;;;;11.55;5.05;;;;;;;7.46;73.12;103269.41;5038976;28;20351;-78
2022/04/28 07:23:10;;;;;;;14.98;5.75;;;;;;;7.53;73.72;103275.53;5054831;28;20052;-77
2022/04/28 07:25:35;;;;;;;13.55;5.78;;;;;;;7.56;73.18;103273.84;5059106;28;20547;-77
2022/04/28 07:28:00;;;;;;;11.02;5.50;;;;;;;7.63;72.87;103272.19;5054827;28;20059;-77
2022/04/28 07:30:26;;;;;;;7.60;4.47;;;;;;;7.66;72.78;103274.84;5054787;28;20305;-77
2022/04/28 07:32:52;;;;;;;7.03;4.45;;;;;;;7.69;72.05;103273.13;5058419;28;20052;-77
2022/04/28 07:35:19;;;;;;;7.95;4.22;;;;;;;7.74;71.30;103280.97;5058537;28;20036;-77
2022/04/28 07:37:45;;;;;;;6.78;4.13;;;;;;;7.80;71.44;103286.25;5038401;28;20037;-77
2022/04/28 07:40:11;;;;;;;13.15;4.28;;;;;;;7.85;71.05;103281.09;5074785;28;20040;-77
2022/04/28 07:42:37;;;;;;;9.07;4.25;;;;;;;7.92;70.89;103279.44;5068696;28;20043;-77
2022/04/28 07:45:03;;;;;;;7.75;3.67;;;;;;;7.97;70.11;103282.97;5049094;28;20053;-78
2022/04/28 07:47:28;;;;;;;12.75;4.32;;;;;;;8.00;70.26;103280.34;5072149;28;20038;-78
2022/04/28 07:49:54;;;;;;;10.95;4.53;;;;;;;8.05;70.19;103283.88;5050664;28;20036;-78
2022/04/28 07:52:20;;;;;;;8.93;4.15;;;;;;;8.13;69.83;103295.28;5069511;28;20082;-78
2022/04/28 07:54:45;;;;;;;7.32;4.43;;;;;;;8.18;69.16;103290.94;5049673;28;20352;-77
2022/04/28 07:57:10;;;;;;;12.13;4.60;;;;;;;8.23;69.29;103293.63;5064278;28;20044;-77
2022/04/28 07:59:37;;;;;;;8.55;4.35;;;;;;;8.27;69.38;103291.03;5066267;28;20235;-77
2022/04/28 08:02:04;;;;;;;10.82;4.07;;;;;;;8.32;69.55;103285.84;5019442;28;20047;-77
2022/04/28 08:04:30;;;;;;;15.57;4.20;;;;;;;8.40;69.42;103296.34;5041067;28;20032;-77
2022/04/28 08:06:56;;;;;;;12.32;4.50;;;;;;;8.49;69.28;103293.84;5073863;28;20064;-78
2022/04/28 08:09:21;;;;;;;7.40;3.92;;;;;;;8.62;69.20;103306.16;5072428;28;20029;-77
2022/04/28 08:11:46;;;;;;;8.75;4.10;;;;;;;8.61;68.00;103304.38;5059882;28;20217;-78
2022/04/28 08:14:12;;;;;;;7.72;3.97;;;;;;;8.64;67.33;103304.41;5072537;28;20036;-77
2022/04/28 08:16:38;;;;;;;7.57;4.03;;;;;;;8.64;67.30;103300.91;5052151;28;20028;-77
2022/04/28 08:19:04;;;;;;;8.02;4.05;;;;;;;8.67;67.03;103303.53;5072007;28;20085;-77
2022/04/28 08:21:30;;;;;;;9.77;4.35;;;;;;;8.68;67.27;103307.03;5072505;28;20049;-77
2022/04/28 08:23:55;;;;;;;8.80;4.13;;;;;;;8.71;67.34;103309.66;5059875;28;20032;-77
2022/04/28 08:26:21;;;;;;;12.68;3.95;;;;;;;8.73;67.40;103295.78;5057749;28;20033;-77
2022/04/28 08:28:46;;;;;;;11.50;4.75;;;;;;;8.73;67.01;103302.72;5041469;28;20036;-77
2022/04/28 08:31:12;;;;;;;12.18;4.45;;;;;;;8.82;67.43;103295.81;5075879;28;20036;-78
2022/04/28 08:33:37;;;;;;;5.47;4.18;;;;;;;8.87;67.00;103295.84;5075999;28;20041;-77
2022/04/28 08:36:03;;;;;;;10.73;4.22;;;;;;;8.91;67.00;103292.38;5047989;28;20047;-78
2022/04/28 08:38:28;;;;;;;11.65;3.90;;;;;;;8.94;66.26;103291.53;5066948;28;20086;-77
2022/04/28 08:41:00;;;;;;;8.95;3.95;;;;;;;8.94;66.39;103292.38;5066278;28;20043;-77
2022/04/28 08:43:28;;;;;;;7.47;3.53;;;;;;;8.95;65.82;103296.75;5075548;28;20397;-77
2022/04/28 08:48:53;;;;;;;7.70;3.83;;;;;;;9.04;65.91;103290.72;5070944;28;20074;-78
2022/04/28 08:51:27;;;;;;;10.32;4.05;;;;;;;9.05;65.49;103288.97;5075572;28;20039;-77
2022/04/28 08:53:54;;;;;;;4.97;4.00;;;;;;;9.07;64.98;103297.69;5044855;28;20111;-77
2022/04/28 08:56:21;;;;;;;8.57;4.00;;;;;;;9.05;65.09;103295.06;5076981;28;20033;-77
2022/04/28 08:58:47;;;;;;;11.23;3.90;;;;;;;9.09;65.63;103299.44;5076656;28;20052;-77
2022/04/28 09:01:13;;;;;;;11.05;3.72;;;;;;;9.18;65.85;103296.00;5069292;28;20036;-78
2022/04/28 09:03:38;;;;;;;6.22;3.75;;;;;;;9.17;65.09;103291.66;5075941;28;20086;-77
2022/04/28 09:06:23;;;;;;;11.13;4.20;;;;;;;9.27;65.82;103288.19;5038627;28;20112;-77
2022/04/28 09:08:50;;;;;;;9.60;3.97;;;;;;;9.31;65.32;103286.44;5056616;28;20032;-77
2022/04/28 09:11:20;;;;;;;12.50;4.15;;;;;;;9.38;65.66;103281.25;5059108;28;20036;-77
2022/04/28 09:14:09;;;;;;;5.45;4.07;;;;;;;9.52;65.23;103280.44;5077061;28;20071;-77
2022/04/28 09:16:38;;;;;;;9.93;4.30;;;;;;;9.53;64.38;103284.78;5040722;28;20056;-77
2022/04/28 09:19:03;;;;;;;9.60;4.22;;;;;;;9.51;64.71;103281.28;5072242;28;20041;-77
2022/04/28 09:21:32;;;;;;;14.40;4.38;;;;;;;9.55;65.11;103278.69;5080540;28;20042;-77
2022/04/28 09:23:58;;;;;;;;;;;;;;;9.60;64.76;103287.44;5075419;28;20271;-77
2022/04/28 09:26:24;;;;;;;12.27;4.30;;;;;;;9.63;64.97;103283.94;5079192;28;19950;-77
2022/04/28 09:28:51;;;;;;;10.32;4.38;;;;;;;9.63;65.37;103283.09;5069294;28;20016;-77
2022/04/28 09:31:18;;;;;;;9.25;4.35;;;;;;;9.60;65.25;103278.69;5061667;28;20032;-77
2022/04/28 09:33:46;;;;;;;7.90;3.92;;;;;;;9.58;65.15;103273.44;5062390;28;20074;-77
2022/04/28 09:36:12;;;;;;;8.88;5.03;;;;;;;9.60;65.35;103269.13;5060714;28;20059;-77
2022/04/28 09:38:38;;;;;;;9.65;5.00;;;;;;;9.64;65.74;103272.63;5058527;28;20024;-77
2022/04/28 09:43:55;;;;;;;7.95;4.20;;;;;;;9.69;65.55;103270.84;5077826;28;20043;-78
2022/04/28 09:46:23;;;;;;;12.90;4.85;;;;;;;9.76;65.21;103280.47;5077747;28;20056;-77
2022/04/28 09:48:49;;;;;;;6.80;4.10;;;;;;;9.69;63.77;103283.94;5079721;28;20059;-77
2022/04/28 09:51:21;;;;;;;6.57;3.58;;;;;;;9.67;64.54;103274.34;5078014;28;20032;-78
2022/04/28 09:53:48;;;;;;;8.52;4.10;;;;;;;9.70;64.48;103275.25;5063368;28;20025;-78
2022/04/28 09:56:16;;;;;;;5.78;3.83;;;;;;;9.72;64.49;103273.50;5079468;28;20033;-77
2022/04/28 09:58:42;;;;;;;11.25;4.10;;;;;;;9.72;64.50;103277.88;5062290;28;20059;-77
2022/04/28 10:01:07;;;;;;;11.77;3.95;;;;;;;9.83;63.98;103278.75;5076364;28;20313;-78
2022/04/28 10:03:33;;;;;;;7.03;4.07;;;;;;;9.86;64.32;103265.66;5073170;28;20235;-77
2022/04/28 10:06:02;;;;;;;10.75;4.22;;;;;;;9.94;63.98;103263.91;5044919;28;20108;-77
2022/04/28 10:08:32;;;;;;;5.38;3.80;;;;;;;9.98;63.70;103267.41;5058890;28;20051;-77
2022/04/28 10:11:01;;;;;;;7.07;3.95;;;;;;;10.02;63.81;103271.78;5061647;28;20320;-78
2022/04/28 10:13:28;;;;;;;9.40;4.30;;;;;;;10.03;63.24;103277.91;5074911;28;20047;-77
2022/04/28 10:15:57;;;;;;;7.75;3.70;;;;;;;10.04;63.46;103277.00;5069818;28;20020;-77
2022/04/28 10:18:28;;;;;;;7.47;3.90;;;;;;;10.10;63.14;103275.28;5066940;28;20308;-77
2022/04/28 10:21:00;;;;;;;8.43;4.25;;;;;;;10.05;62.99;103269.16;5057608;28;20028;-77
2022/04/28 10:35:07;;;;;;;7.88;4.60;;;;;;;10.07;63.47;103267.41;5078955;28;20086;-77
2022/04/28 10:37:34;;;;;;;19.67;5.40;;;;;;;10.11;63.33;103268.28;5054371;28;20032;-77
2022/04/28 10:39:59;;;;;;;8.20;3.92;;;;;;;10.10;62.65;103269.19;5079254;28;20111;-77
2022/04/28 10:42:28;;;;;;;6.55;4.50;;;;;;;10.11;62.57;103263.06;5063681;28;20083;-77
2022/04/28 10:44:55;;;;;;;7.87;4.30;;;;;;;10.17;63.14;103270.94;5068326;28;20217;-77
2022/04/28 10:47:41;;;;;;;8.02;4.53;;;;;;;10.30;62.92;103272.66;5078562;28;20395;-77
2022/04/28 10:50:23;;;;;;;6.22;4.35;;;;;;;10.27;62.46;103270.03;5060367;28;20040;-77
2022/04/28 10:53:15;;;;;;;13.32;4.95;;;;;;;10.30;62.24;103270.03;5071999;28;20036;-77
2022/04/28 10:55:41;;;;;;;7.65;4.03;;;;;;;10.38;61.50;103260.44;5066453;28;20072;-77
2022/04/28 10:58:25;;;;;;;6.38;4.00;;;;;;;10.49;61.23;103270.91;5060182;28;20047;-77
2022/04/28 11:00:55;;;;;;;7.50;4.53;;;;;;;10.49;61.17;103276.16;5060498;28;20040;-77
2022/04/28 11:03:50;;;;;;;7.85;4.43;;;;;;;10.54;60.90;103271.78;5043291;28;20337;-77
2022/04/28 11:06:21;;;;;;;5.95;4.13;;;;;;;10.57;61.11;103271.78;5059503;28;20023;-77
2022/04/28 11:08:53;;;;;;;6.68;4.20;;;;;;;10.59;60.93;103271.78;5076849;28;20039;-78
2022/04/28 11:11:19;;;;;;;7.53;3.95;;;;;;;10.65;61.03;103265.66;5077704;28;20389;-77
2022/04/28 11:13:56;;;;;;;11.98;4.32;;;;;;;10.67;60.43;103266.53;5060530;28;20063;-77
2022/04/28 11:16:22;;;;;;;6.45;3.90;;;;;;;10.69;60.59;103257.75;5059775;28;20335;-77
2022/04/28 11:18:47;;;;;;;9.45;4.28;;;;;;;10.76;60.12;103263.88;5057997;28;20088;-77
2022/04/28 11:21:14;;;;;;;6.00;3.75;;;;;;;10.86;60.37;103260.34;5041958;28;20025;-77
2022/04/28 11:23:46;;;;;;;6.65;4.07;;;;;;;10.89;59.97;103265.56;5076948;28;20020;-77
2022/04/28 11:26:12;;;;;;;7.20;4.15;;;;;;;10.88;59.53;103263.84;5059526;28;20044;-77
2022/04/28 11:28:39;;;;;;;40.15;5.95;;;;;;;10.86;60.40;103254.22;5057207;28;20111;-77
2022/04/28 11:31:13;;;;;;;11.82;4.63;;;;;;;10.79;60.07;103255.13;5074980;28;20040;-78
2022/04/28 11:33:41;;;;;;;8.88;4.55;;;;;;;10.77;60.40;103260.38;5065634;28;20016;-77
2022/04/28 11:36:18;;;;;;;10.55;4.70;;;;;;;10.77;60.51;103255.16;5053029;28;20404;-78
2022/04/28 11:39:02;;;;;;;7.40;4.15;;;;;;;10.78;60.73;103250.78;5071079;28;20021;-77
2022/04/28 11:41:41;;;;;;;8.13;4.82;;;;;;;10.79;61.25;103250.78;5072606;28;20382;-78
2022/04/28 11:44:10;;;;;;;12.63;4.95;;;;;;;10.79;60.85;103242.91;5071562;28;20107;-77
2022/04/28 11:46:50;;;;;;;12.85;4.68;;;;;;;10.82;61.08;103237.63;5047597;28;20044;-77
2022/04/28 11:49:20;;;;;;;8.20;4.60;;;;;;;10.89;60.66;103248.97;5054523;28;20020;-77
2022/04/28 11:51:46;;;;;;;7.72;4.93;;;;;;;10.90;60.47;103242.88;5051235;28;20025;-77
2022/04/28 11:54:23;;;;;;;6.22;4.38;;;;;;;10.94;60.25;103237.59;5051685;28;20045;-77
2022/04/28 11:56:49;;;;;;;13.73;4.90;;;;;;;11.01;60.34;103240.22;5048671;28;20194;-77
2022/04/28 11:59:15;;;;;;;10.95;5.30;;;;;;;11.04;60.60;103237.56;5057534;28;20066;-77
2022/04/28 12:01:42;;;;;;;9.15;5.03;;;;;;;11.11;60.21;103249.75;5055550;28;20277;-77
2022/04/28 12:04:08;;;;;;;5.95;4.68;;;;;;;11.21;60.25;103253.22;5054461;28;20037;-78